sensor_id;sensor_type;location;lat;lon;timestamp;P1;durP1;ratioP1;P2;durP2;ratioP2
8260;SDS011;64115;50.170;8.242;2023-11-21T00:00:44;1.60;;;1.23;;
8260;SDS011;64115;50.170;8.242;2023-11-21T00:03:12;1.17;;;0.63;;
8260;SDS011;64115;50.170;8.242;2023-11-21T00:05:40;2.23;;;1.47;;
8260;SDS011;64115;50.170;8.242;2023-11-21T00:08:07;60.60;;;5.30;;
8260;SDS011;64115;50.170;8.242;2023-11-21T00:10:35;90.07;;;6.80;;
8260;SDS011;64115;50.170;8.242;2023-11-21T00:13:03;65.83;;;5.50;;
8260;SDS011;64115;50.170;8.242;2023-11-21T00:15:30;33.30;;;3.87;;
8260;SDS011;64115;50.170;8.242;2023-11-21T00:17:58;293.57;;;13.60;;
8260;SDS011;64115;50.170;8.242;2023-11-21T00:20:24;356.43;;;15.13;;
8260;SDS011;64115;50.170;8.242;2023-11-21T00:22:51;248.13;;;12.30;;
8260;SDS011;64115;50.170;8.242;2023-11-21T00:25:18;375.17;;;16.67;;
8260;SDS011;64115;50.170;8.242;2023-11-21T00:27:45;517.90;;;18.57;;
8260;SDS011;64115;50.170;8.242;2023-11-21T00:30:12;391.43;;;16.60;;
8260;SDS011;64115;50.170;8.242;2023-11-21T00:32:40;617.77;;;25.27;;
8260;SDS011;64115;50.170;8.242;2023-11-21T00:35:08;531.43;;;21.67;;
8260;SDS011;64115;50.170;8.242;2023-11-21T00:37:35;515.53;;;20.93;;
8260;SDS011;64115;50.170;8.242;2023-11-21T00:40:04;544.97;;;21.57;;
8260;SDS011;64115;50.170;8.242;2023-11-21T00:42:32;394.77;;;17.57;;
8260;SDS011;64115;50.170;8.242;2023-11-21T00:44:59;717.20;;;27.77;;
8260;SDS011;64115;50.170;8.242;2023-11-21T00:47:26;744.73;;;28.47;;
8260;SDS011;64115;50.170;8.242;2023-11-21T00:49:53;676.57;;;25.57;;
8260;SDS011;64115;50.170;8.242;2023-11-21T00:52:21;591.37;;;23.90;;
8260;SDS011;64115;50.170;8.242;2023-11-21T00:54:47;510.83;;;17.67;;
8260;SDS011;64115;50.170;8.242;2023-11-21T00:57:14;465.63;;;16.37;;
8260;SDS011;64115;50.170;8.242;2023-11-21T00:59:41;374.77;;;17.00;;
8260;SDS011;64115;50.170;8.242;2023-11-21T01:02:08;442.40;;;15.50;;
8260;SDS011;64115;50.170;8.242;2023-11-21T01:04:36;168.03;;;8.80;;
8260;SDS011;64115;50.170;8.242;2023-11-21T01:07:03;367.13;;;15.97;;
8260;SDS011;64115;50.170;8.242;2023-11-21T01:09:32;83.93;;;6.10;;
8260;SDS011;64115;50.170;8.242;2023-11-21T01:11:58;318.83;;;15.03;;
8260;SDS011;64115;50.170;8.242;2023-11-21T01:14:26;201.17;;;9.27;;
8260;SDS011;64115;50.170;8.242;2023-11-21T01:16:53;70.27;;;7.33;;
8260;SDS011;64115;50.170;8.242;2023-11-21T01:19:19;165.13;;;8.80;;
8260;SDS011;64115;50.170;8.242;2023-11-21T01:21:46;7.63;;;2.70;;
8260;SDS011;64115;50.170;8.242;2023-11-21T01:24:13;1.93;;;1.73;;
8260;SDS011;64115;50.170;8.242;2023-11-21T01:26:41;3.23;;;1.90;;
8260;SDS011;64115;50.170;8.242;2023-11-21T01:29:08;73.03;;;4.67;;
8260;SDS011;64115;50.170;8.242;2023-11-21T01:31:35;2.20;;;2.07;;
8260;SDS011;64115;50.170;8.242;2023-11-21T01:34:02;184.67;;;10.67;;
8260;SDS011;64115;50.170;8.242;2023-11-21T01:36:30;319.27;;;14.93;;
8260;SDS011;64115;50.170;8.242;2023-11-21T01:38:58;67.67;;;5.03;;
8260;SDS011;64115;50.170;8.242;2023-11-21T01:41:25;303.23;;;16.33;;
8260;SDS011;64115;50.170;8.242;2023-11-21T01:43:54;20.00;;;3.50;;
8260;SDS011;64115;50.170;8.242;2023-11-21T01:46:24;2.03;;;1.83;;
8260;SDS011;64115;50.170;8.242;2023-11-21T01:48:51;1.27;;;0.90;;
8260;SDS011;64115;50.170;8.242;2023-11-21T01:51:19;1.10;;;1.10;;
8260;SDS011;64115;50.170;8.242;2023-11-21T01:53:45;0.97;;;0.80;;
8260;SDS011;64115;50.170;8.242;2023-11-21T01:56:13;0.60;;;0.60;;
8260;SDS011;64115;50.170;8.242;2023-11-21T01:58:40;1.37;;;0.67;;
8260;SDS011;64115;50.170;8.242;2023-11-21T02:01:08;1.03;;;0.70;;
8260;SDS011;64115;50.170;8.242;2023-11-21T02:03:35;0.70;;;0.70;;
8260;SDS011;64115;50.170;8.242;2023-11-21T02:06:02;1.70;;;1.03;;
8260;SDS011;64115;50.170;8.242;2023-11-21T02:08:29;0.93;;;0.93;;
8260;SDS011;64115;50.170;8.242;2023-11-21T02:10:56;1.60;;;0.80;;
8260;SDS011;64115;50.170;8.242;2023-11-21T02:13:23;0.83;;;0.83;;
8260;SDS011;64115;50.170;8.242;2023-11-21T02:15:50;0.90;;;0.90;;
8260;SDS011;64115;50.170;8.242;2023-11-21T02:18:20;0.80;;;0.80;;
8260;SDS011;64115;50.170;8.242;2023-11-21T02:20:48;1.03;;;0.60;;
8260;SDS011;64115;50.170;8.242;2023-11-21T02:23:16;0.70;;;0.70;;
8260;SDS011;64115;50.170;8.242;2023-11-21T02:25:43;0.80;;;0.80;;
8260;SDS011;64115;50.170;8.242;2023-11-21T02:28:09;0.80;;;0.80;;
8260;SDS011;64115;50.170;8.242;2023-11-21T02:30:37;3.60;;;0.90;;
8260;SDS011;64115;50.170;8.242;2023-11-21T02:33:04;1.03;;;1.00;;
8260;SDS011;64115;50.170;8.242;2023-11-21T02:35:32;1.10;;;1.10;;
8260;SDS011;64115;50.170;8.242;2023-11-21T02:38:00;1.53;;;1.00;;
8260;SDS011;64115;50.170;8.242;2023-11-21T02:40:28;1.77;;;1.10;;
8260;SDS011;64115;50.170;8.242;2023-11-21T02:42:55;0.83;;;0.83;;
8260;SDS011;64115;50.170;8.242;2023-11-21T02:45:24;0.70;;;0.70;;
8260;SDS011;64115;50.170;8.242;2023-11-21T02:47:51;0.83;;;0.83;;
8260;SDS011;64115;50.170;8.242;2023-11-21T02:50:21;0.90;;;0.90;;
8260;SDS011;64115;50.170;8.242;2023-11-21T02:52:48;1.00;;;1.00;;
8260;SDS011;64115;50.170;8.242;2023-11-21T02:55:15;1.33;;;1.20;;
8260;SDS011;64115;50.170;8.242;2023-11-21T02:57:43;1.17;;;1.17;;
8260;SDS011;64115;50.170;8.242;2023-11-21T03:00:10;1.47;;;1.10;;
8260;SDS011;64115;50.170;8.242;2023-11-21T03:02:39;1.60;;;1.27;;
8260;SDS011;64115;50.170;8.242;2023-11-21T03:05:07;2.27;;;1.60;;
8260;SDS011;64115;50.170;8.242;2023-11-21T03:07:35;2.33;;;1.63;;
8260;SDS011;64115;50.170;8.242;2023-11-21T03:10:02;2.20;;;1.90;;
8260;SDS011;64115;50.170;8.242;2023-11-21T03:12:30;4.33;;;2.40;;
8260;SDS011;64115;50.170;8.242;2023-11-21T03:14:58;3.07;;;2.63;;
8260;SDS011;64115;50.170;8.242;2023-11-21T03:17:24;4.30;;;3.10;;
8260;SDS011;64115;50.170;8.242;2023-11-21T03:19:51;34.57;;;4.63;;
8260;SDS011;64115;50.170;8.242;2023-11-21T03:22:18;6.00;;;3.60;;
8260;SDS011;64115;50.170;8.242;2023-11-21T03:24:45;71.13;;;4.80;;
8260;SDS011;64115;50.170;8.242;2023-11-21T03:27:11;63.97;;;5.93;;
8260;SDS011;64115;50.170;8.242;2023-11-21T03:29:38;37.17;;;4.50;;
8260;SDS011;64115;50.170;8.242;2023-11-21T03:32:07;8.13;;;3.80;;
8260;SDS011;64115;50.170;8.242;2023-11-21T03:34:33;37.07;;;5.00;;
8260;SDS011;64115;50.170;8.242;2023-11-21T03:37:00;13.13;;;4.50;;
8260;SDS011;64115;50.170;8.242;2023-11-21T03:39:27;127.90;;;7.80;;
8260;SDS011;64115;50.170;8.242;2023-11-21T03:41:54;93.40;;;8.47;;
8260;SDS011;64115;50.170;8.242;2023-11-21T03:44:21;52.23;;;5.80;;
8260;SDS011;64115;50.170;8.242;2023-11-21T03:46:48;276.63;;;12.50;;
8260;SDS011;64115;50.170;8.242;2023-11-21T03:49:16;86.87;;;6.73;;
8260;SDS011;64115;50.170;8.242;2023-11-21T03:51:43;159.67;;;8.37;;
8260;SDS011;64115;50.170;8.242;2023-11-21T03:54:08;76.67;;;7.17;;
8260;SDS011;64115;50.170;8.242;2023-11-21T03:56:36;57.33;;;6.83;;
8260;SDS011;64115;50.170;8.242;2023-11-21T03:59:02;77.73;;;7.27;;
8260;SDS011;64115;50.170;8.242;2023-11-21T04:01:29;5.10;;;4.03;;
8260;SDS011;64115;50.170;8.242;2023-11-21T04:03:56;4.53;;;4.13;;
8260;SDS011;64115;50.170;8.242;2023-11-21T04:06:24;5.40;;;4.47;;
8260;SDS011;64115;50.170;8.242;2023-11-21T04:08:51;7.57;;;4.60;;
8260;SDS011;64115;50.170;8.242;2023-11-21T04:11:18;20.13;;;6.63;;
8260;SDS011;64115;50.170;8.242;2023-11-21T04:13:47;519.20;;;22.57;;
8260;SDS011;64115;50.170;8.242;2023-11-21T04:16:14;261.23;;;17.73;;
8260;SDS011;64115;50.170;8.242;2023-11-21T04:18:41;345.17;;;18.23;;
8260;SDS011;64115;50.170;8.242;2023-11-21T04:21:08;361.80;;;15.93;;
8260;SDS011;64115;50.170;8.242;2023-11-21T04:23:36;232.20;;;14.17;;
8260;SDS011;64115;50.170;8.242;2023-11-21T04:26:05;411.97;;;19.67;;
8260;SDS011;64115;50.170;8.242;2023-11-21T04:28:31;381.90;;;18.13;;
8260;SDS011;64115;50.170;8.242;2023-11-21T04:30:58;60.97;;;9.10;;
8260;SDS011;64115;50.170;8.242;2023-11-21T04:33:25;132.40;;;11.43;;
8260;SDS011;64115;50.170;8.242;2023-11-21T04:35:52;159.33;;;12.13;;
8260;SDS011;64115;50.170;8.242;2023-11-21T04:38:18;69.90;;;10.17;;
8260;SDS011;64115;50.170;8.242;2023-11-21T04:40:46;447.87;;;20.10;;
8260;SDS011;64115;50.170;8.242;2023-11-21T04:43:13;165.93;;;13.77;;
8260;SDS011;64115;50.170;8.242;2023-11-21T04:45:40;120.93;;;12.90;;
8260;SDS011;64115;50.170;8.242;2023-11-21T04:48:07;65.47;;;9.10;;
8260;SDS011;64115;50.170;8.242;2023-11-21T04:50:35;20.83;;;8.30;;
8260;SDS011;64115;50.170;8.242;2023-11-21T04:53:01;11.17;;;7.23;;
8260;SDS011;64115;50.170;8.242;2023-11-21T04:55:28;26.93;;;9.27;;
8260;SDS011;64115;50.170;8.242;2023-11-21T04:57:56;10.30;;;6.23;;
8260;SDS011;64115;50.170;8.242;2023-11-21T05:00:23;13.27;;;6.53;;
8260;SDS011;64115;50.170;8.242;2023-11-21T05:02:50;36.13;;;8.43;;
8260;SDS011;64115;50.170;8.242;2023-11-21T05:05:17;13.17;;;6.97;;
8260;SDS011;64115;50.170;8.242;2023-11-21T05:07:44;70.53;;;10.77;;
8260;SDS011;64115;50.170;8.242;2023-11-21T05:10:11;8.97;;;7.00;;
8260;SDS011;64115;50.170;8.242;2023-11-21T05:12:39;9.07;;;6.20;;
8260;SDS011;64115;50.170;8.242;2023-11-21T05:15:08;9.53;;;6.77;;
8260;SDS011;64115;50.170;8.242;2023-11-21T05:17:36;4.83;;;4.33;;
8260;SDS011;64115;50.170;8.242;2023-11-21T05:20:04;6.27;;;4.57;;
8260;SDS011;64115;50.170;8.242;2023-11-21T05:22:33;7.03;;;4.93;;
8260;SDS011;64115;50.170;8.242;2023-11-21T05:25:00;6.77;;;5.10;;
8260;SDS011;64115;50.170;8.242;2023-11-21T05:27:28;8.03;;;5.87;;
8260;SDS011;64115;50.170;8.242;2023-11-21T05:29:55;8.00;;;5.20;;
8260;SDS011;64115;50.170;8.242;2023-11-21T05:32:24;7.63;;;5.67;;
8260;SDS011;64115;50.170;8.242;2023-11-21T05:34:52;6.37;;;5.70;;
8260;SDS011;64115;50.170;8.242;2023-11-21T05:37:19;8.10;;;5.53;;
8260;SDS011;64115;50.170;8.242;2023-11-21T05:39:45;5.50;;;5.00;;
8260;SDS011;64115;50.170;8.242;2023-11-21T05:42:12;5.37;;;4.83;;
8260;SDS011;64115;50.170;8.242;2023-11-21T05:44:41;6.13;;;4.57;;
8260;SDS011;64115;50.170;8.242;2023-11-21T05:47:08;5.43;;;4.90;;
8260;SDS011;64115;50.170;8.242;2023-11-21T05:49:36;6.23;;;5.40;;
8260;SDS011;64115;50.170;8.242;2023-11-21T05:52:04;5.63;;;5.10;;
8260;SDS011;64115;50.170;8.242;2023-11-21T05:54:31;4.60;;;4.20;;
8260;SDS011;64115;50.170;8.242;2023-11-21T05:56:58;6.10;;;4.53;;
8260;SDS011;64115;50.170;8.242;2023-11-21T05:59:25;4.17;;;3.87;;
8260;SDS011;64115;50.170;8.242;2023-11-21T06:01:52;5.60;;;5.10;;
8260;SDS011;64115;50.170;8.242;2023-11-21T06:04:19;5.80;;;5.10;;
8260;SDS011;64115;50.170;8.242;2023-11-21T06:06:50;8.53;;;5.90;;
8260;SDS011;64115;50.170;8.242;2023-11-21T06:09:17;15.43;;;7.70;;
8260;SDS011;64115;50.170;8.242;2023-11-21T06:11:44;28.47;;;7.93;;
8260;SDS011;64115;50.170;8.242;2023-11-21T06:14:11;20.03;;;7.97;;
8260;SDS011;64115;50.170;8.242;2023-11-21T06:16:37;21.13;;;8.10;;
8260;SDS011;64115;50.170;8.242;2023-11-21T06:19:05;18.67;;;7.47;;
8260;SDS011;64115;50.170;8.242;2023-11-21T06:21:32;13.00;;;6.87;;
8260;SDS011;64115;50.170;8.242;2023-11-21T06:24:00;71.27;;;8.83;;
8260;SDS011;64115;50.170;8.242;2023-11-21T06:26:27;227.40;;;13.70;;
8260;SDS011;64115;50.170;8.242;2023-11-21T06:28:54;229.07;;;13.93;;
8260;SDS011;64115;50.170;8.242;2023-11-21T06:31:22;256.87;;;15.30;;
8260;SDS011;64115;50.170;8.242;2023-11-21T06:33:48;246.07;;;13.17;;
8260;SDS011;64115;50.170;8.242;2023-11-21T06:36:17;438.37;;;21.00;;
8260;SDS011;64115;50.170;8.242;2023-11-21T06:38:43;391.10;;;15.87;;
8260;SDS011;64115;50.170;8.242;2023-11-21T06:41:13;357.97;;;17.60;;
8260;SDS011;64115;50.170;8.242;2023-11-21T06:43:40;410.37;;;18.67;;
8260;SDS011;64115;50.170;8.242;2023-11-21T06:46:10;357.30;;;19.37;;
8260;SDS011;64115;50.170;8.242;2023-11-21T06:48:38;644.73;;;23.43;;
8260;SDS011;64115;50.170;8.242;2023-11-21T06:51:05;346.33;;;17.77;;
8260;SDS011;64115;50.170;8.242;2023-11-21T06:53:32;412.83;;;19.47;;
8260;SDS011;64115;50.170;8.242;2023-11-21T06:55:59;489.23;;;20.50;;
8260;SDS011;64115;50.170;8.242;2023-11-21T06:58:27;539.27;;;23.67;;
8260;SDS011;64115;50.170;8.242;2023-11-21T07:00:53;396.83;;;15.97;;
8260;SDS011;64115;50.170;8.242;2023-11-21T07:03:20;527.87;;;17.27;;
8260;SDS011;64115;50.170;8.242;2023-11-21T07:05:49;343.73;;;17.60;;
8260;SDS011;64115;50.170;8.242;2023-11-21T07:08:15;17.57;;;7.53;;
8260;SDS011;64115;50.170;8.242;2023-11-21T07:10:42;12.23;;;7.27;;
8260;SDS011;64115;50.170;8.242;2023-11-21T07:13:09;10.90;;;7.23;;
8260;SDS011;64115;50.170;8.242;2023-11-21T07:15:38;11.23;;;7.80;;
8260;SDS011;64115;50.170;8.242;2023-11-21T07:18:05;11.47;;;7.30;;
8260;SDS011;64115;50.170;8.242;2023-11-21T07:20:32;14.77;;;8.47;;
8260;SDS011;64115;50.170;8.242;2023-11-21T07:22:59;9.07;;;6.57;;
8260;SDS011;64115;50.170;8.242;2023-11-21T07:25:26;12.03;;;8.67;;
8260;SDS011;64115;50.170;8.242;2023-11-21T07:27:53;9.47;;;7.07;;
8260;SDS011;64115;50.170;8.242;2023-11-21T07:30:20;15.70;;;9.13;;
8260;SDS011;64115;50.170;8.242;2023-11-21T07:32:48;16.40;;;9.13;;
8260;SDS011;64115;50.170;8.242;2023-11-21T07:35:15;12.70;;;6.60;;
8260;SDS011;64115;50.170;8.242;2023-11-21T07:37:42;12.55;;;8.70;;
8260;SDS011;64115;50.170;8.242;2023-11-21T07:40:09;11.33;;;8.80;;
8260;SDS011;64115;50.170;8.242;2023-11-21T07:42:37;12.33;;;8.13;;
8260;SDS011;64115;50.170;8.242;2023-11-21T07:45:04;10.70;;;6.23;;
8260;SDS011;64115;50.170;8.242;2023-11-21T07:47:32;7.67;;;6.30;;
8260;SDS011;64115;50.170;8.242;2023-11-21T07:50:01;8.23;;;6.93;;
8260;SDS011;64115;50.170;8.242;2023-11-21T07:52:29;9.07;;;5.80;;
8260;SDS011;64115;50.170;8.242;2023-11-21T07:54:56;8.67;;;6.37;;
8260;SDS011;64115;50.170;8.242;2023-11-21T07:57:22;8.17;;;7.00;;
8260;SDS011;64115;50.170;8.242;2023-11-21T07:59:49;12.40;;;7.03;;
8260;SDS011;64115;50.170;8.242;2023-11-21T08:02:18;7.00;;;6.03;;
8260;SDS011;64115;50.170;8.242;2023-11-21T08:04:45;11.97;;;6.27;;
8260;SDS011;64115;50.170;8.242;2023-11-21T08:07:15;8.07;;;5.87;;
8260;SDS011;64115;50.170;8.242;2023-11-21T08:09:43;6.27;;;5.67;;
8260;SDS011;64115;50.170;8.242;2023-11-21T08:12:11;7.00;;;5.37;;
8260;SDS011;64115;50.170;8.242;2023-11-21T08:14:39;9.37;;;5.77;;
8260;SDS011;64115;50.170;8.242;2023-11-21T08:17:06;8.07;;;5.67;;
8260;SDS011;64115;50.170;8.242;2023-11-21T08:19:35;6.93;;;5.90;;
8260;SDS011;64115;50.170;8.242;2023-11-21T08:22:02;6.53;;;5.30;;
8260;SDS011;64115;50.170;8.242;2023-11-21T08:24:30;7.93;;;5.87;;
8260;SDS011;64115;50.170;8.242;2023-11-21T08:26:57;7.00;;;5.37;;
8260;SDS011;64115;50.170;8.242;2023-11-21T08:29:24;6.33;;;5.20;;
8260;SDS011;64115;50.170;8.242;2023-11-21T08:31:51;6.77;;;5.30;;
8260;SDS011;64115;50.170;8.242;2023-11-21T08:34:18;8.17;;;4.93;;
8260;SDS011;64115;50.170;8.242;2023-11-21T08:36:45;7.67;;;5.20;;
8260;SDS011;64115;50.170;8.242;2023-11-21T08:39:12;7.20;;;4.70;;
8260;SDS011;64115;50.170;8.242;2023-11-21T08:41:42;6.43;;;5.00;;
8260;SDS011;64115;50.170;8.242;2023-11-21T08:44:09;6.90;;;4.47;;
8260;SDS011;64115;50.170;8.242;2023-11-21T08:46:36;7.80;;;5.13;;
8260;SDS011;64115;50.170;8.242;2023-11-21T08:49:04;6.00;;;4.63;;
8260;SDS011;64115;50.170;8.242;2023-11-21T08:51:31;6.20;;;5.60;;
8260;SDS011;64115;50.170;8.242;2023-11-21T08:53:58;5.97;;;5.37;;
8260;SDS011;64115;50.170;8.242;2023-11-21T08:56:29;7.00;;;5.07;;
8260;SDS011;64115;50.170;8.242;2023-11-21T08:58:57;6.23;;;4.67;;
8260;SDS011;64115;50.170;8.242;2023-11-21T09:01:25;5.90;;;4.10;;
8260;SDS011;64115;50.170;8.242;2023-11-21T09:03:52;6.90;;;4.70;;
8260;SDS011;64115;50.170;8.242;2023-11-21T09:06:19;5.13;;;4.50;;
8260;SDS011;64115;50.170;8.242;2023-11-21T09:08:46;7.10;;;5.00;;
8260;SDS011;64115;50.170;8.242;2023-11-21T09:11:13;5.47;;;4.47;;
8260;SDS011;64115;50.170;8.242;2023-11-21T09:13:39;5.53;;;4.40;;
8260;SDS011;64115;50.170;8.242;2023-11-21T09:16:08;6.40;;;4.63;;
8260;SDS011;64115;50.170;8.242;2023-11-21T09:18:35;6.13;;;4.43;;
8260;SDS011;64115;50.170;8.242;2023-11-21T09:21:02;6.33;;;4.93;;
8260;SDS011;64115;50.170;8.242;2023-11-21T09:23:30;5.67;;;4.33;;
8260;SDS011;64115;50.170;8.242;2023-11-21T09:25:56;4.87;;;4.30;;
8260;SDS011;64115;50.170;8.242;2023-11-21T09:28:25;8.60;;;5.00;;
8260;SDS011;64115;50.170;8.242;2023-11-21T09:30:52;4.90;;;4.37;;
8260;SDS011;64115;50.170;8.242;2023-11-21T09:33:20;6.20;;;4.70;;
8260;SDS011;64115;50.170;8.242;2023-11-21T09:35:50;7.37;;;4.47;;
8260;SDS011;64115;50.170;8.242;2023-11-21T09:38:17;9.60;;;4.90;;
8260;SDS011;64115;50.170;8.242;2023-11-21T09:40:44;6.53;;;4.63;;
8260;SDS011;64115;50.170;8.242;2023-11-21T09:43:14;5.20;;;4.70;;
8260;SDS011;64115;50.170;8.242;2023-11-21T09:45:44;4.70;;;4.27;;
8260;SDS011;64115;50.170;8.242;2023-11-21T09:48:13;6.83;;;4.33;;
8260;SDS011;64115;50.170;8.242;2023-11-21T09:50:43;5.37;;;4.40;;
8260;SDS011;64115;50.170;8.242;2023-11-21T09:53:13;6.87;;;4.70;;
8260;SDS011;64115;50.170;8.242;2023-11-21T09:55:44;7.23;;;4.60;;
8260;SDS011;64115;50.170;8.242;2023-11-21T09:58:13;5.07;;;4.27;;
8260;SDS011;64115;50.170;8.242;2023-11-21T10:00:40;7.63;;;4.20;;
8260;SDS011;64115;50.170;8.242;2023-11-21T10:03:08;6.30;;;4.40;;
8260;SDS011;64115;50.170;8.242;2023-11-21T10:05:35;7.17;;;4.70;;
8260;SDS011;64115;50.170;8.242;2023-11-21T10:08:04;5.93;;;4.13;;
8260;SDS011;64115;50.170;8.242;2023-11-21T10:10:33;6.90;;;3.90;;
8260;SDS011;64115;50.170;8.242;2023-11-21T10:13:02;5.60;;;4.10;;
8260;SDS011;64115;50.170;8.242;2023-11-21T10:15:31;8.40;;;4.90;;
8260;SDS011;64115;50.170;8.242;2023-11-21T10:18:01;6.67;;;4.47;;
8260;SDS011;64115;50.170;8.242;2023-11-21T10:20:31;6.97;;;3.90;;
8260;SDS011;64115;50.170;8.242;2023-11-21T10:22:58;6.20;;;3.80;;
8260;SDS011;64115;50.170;8.242;2023-11-21T10:25:28;4.67;;;3.60;;
8260;SDS011;64115;50.170;8.242;2023-11-21T10:27:57;4.20;;;3.80;;
8260;SDS011;64115;50.170;8.242;2023-11-21T10:30:27;4.53;;;3.63;;
8260;SDS011;64115;50.170;8.242;2023-11-21T10:32:58;7.70;;;3.43;;
8260;SDS011;64115;50.170;8.242;2023-11-21T10:35:33;4.60;;;3.43;;
8260;SDS011;64115;50.170;8.242;2023-11-21T10:38:05;4.30;;;2.67;;
8260;SDS011;64115;50.170;8.242;2023-11-21T10:40:38;4.37;;;3.00;;
8260;SDS011;64115;50.170;8.242;2023-11-21T10:43:07;4.00;;;3.13;;
8260;SDS011;64115;50.170;8.242;2023-11-21T10:45:35;4.77;;;3.03;;
8260;SDS011;64115;50.170;8.242;2023-11-21T10:48:04;4.10;;;2.87;;
8260;SDS011;64115;50.170;8.242;2023-11-21T10:50:32;6.00;;;2.70;;
8260;SDS011;64115;50.170;8.242;2023-11-21T10:53:01;3.47;;;2.83;;
8260;SDS011;64115;50.170;8.242;2023-11-21T10:55:29;10.10;;;3.20;;
8260;SDS011;64115;50.170;8.242;2023-11-21T10:57:59;4.03;;;3.00;;
8260;SDS011;64115;50.170;8.242;2023-11-21T11:00:29;4.97;;;2.80;;
8260;SDS011;64115;50.170;8.242;2023-11-21T11:02:56;4.47;;;2.50;;
8260;SDS011;64115;50.170;8.242;2023-11-21T11:05:24;3.40;;;2.43;;
8260;SDS011;64115;50.170;8.242;2023-11-21T11:08:02;3.83;;;2.60;;
8260;SDS011;64115;50.170;8.242;2023-11-21T11:10:31;4.87;;;3.00;;
8260;SDS011;64115;50.170;8.242;2023-11-21T11:12:59;3.23;;;2.80;;
8260;SDS011;64115;50.170;8.242;2023-11-21T11:15:26;4.60;;;2.90;;
8260;SDS011;64115;50.170;8.242;2023-11-21T11:17:54;3.50;;;2.83;;
8260;SDS011;64115;50.170;8.242;2023-11-21T11:20:23;4.70;;;2.87;;
8260;SDS011;64115;50.170;8.242;2023-11-21T11:23:04;4.47;;;3.00;;
8260;SDS011;64115;50.170;8.242;2023-11-21T11:25:52;6.30;;;2.87;;
8260;SDS011;64115;50.170;8.242;2023-11-21T11:28:29;4.17;;;2.90;;
8260;SDS011;64115;50.170;8.242;2023-11-21T11:31:05;5.40;;;2.90;;
8260;SDS011;64115;50.170;8.242;2023-11-21T11:33:42;4.60;;;3.00;;
8260;SDS011;64115;50.170;8.242;2023-11-21T11:36:27;4.17;;;3.20;;
8260;SDS011;64115;50.170;8.242;2023-11-21T11:38:59;5.67;;;3.50;;
8260;SDS011;64115;50.170;8.242;2023-11-21T11:41:28;5.63;;;3.50;;
8260;SDS011;64115;50.170;8.242;2023-11-21T11:44:01;4.70;;;3.20;;
8260;SDS011;64115;50.170;8.242;2023-11-21T11:46:40;4.80;;;3.50;;
8260;SDS011;64115;50.170;8.242;2023-11-21T11:49:08;5.43;;;3.30;;
8260;SDS011;64115;50.170;8.242;2023-11-21T11:51:36;4.53;;;3.13;;
8260;SDS011;64115;50.170;8.242;2023-11-21T11:54:03;5.30;;;3.30;;
8260;SDS011;64115;50.170;8.242;2023-11-21T11:56:34;7.40;;;3.70;;
8260;SDS011;64115;50.170;8.242;2023-11-21T11:59:03;5.10;;;3.27;;
8260;SDS011;64115;50.170;8.242;2023-11-21T12:01:34;5.63;;;3.50;;
8260;SDS011;64115;50.170;8.242;2023-11-21T12:06:56;3.60;;;3.17;;
8260;SDS011;64115;50.170;8.242;2023-11-21T12:09:27;4.77;;;3.60;;
8260;SDS011;64115;50.170;8.242;2023-11-21T12:11:56;6.50;;;4.30;;
8260;SDS011;64115;50.170;8.242;2023-11-21T12:14:24;4.17;;;3.87;;
8260;SDS011;64115;50.170;8.242;2023-11-21T12:16:51;4.53;;;4.00;;
8260;SDS011;64115;50.170;8.242;2023-11-21T12:19:19;5.40;;;4.57;;
8260;SDS011;64115;50.170;8.242;2023-11-21T12:21:48;5.67;;;4.20;;
8260;SDS011;64115;50.170;8.242;2023-11-21T12:24:15;4.70;;;4.27;;
8260;SDS011;64115;50.170;8.242;2023-11-21T12:26:42;4.90;;;4.40;;
8260;SDS011;64115;50.170;8.242;2023-11-21T12:29:10;5.03;;;4.30;;
8260;SDS011;64115;50.170;8.242;2023-11-21T12:31:38;5.47;;;4.53;;
8260;SDS011;64115;50.170;8.242;2023-11-21T12:34:06;6.50;;;4.33;;
8260;SDS011;64115;50.170;8.242;2023-11-21T12:36:34;5.00;;;4.47;;
8260;SDS011;64115;50.170;8.242;2023-11-21T12:39:01;5.20;;;4.00;;
8260;SDS011;64115;50.170;8.242;2023-11-21T12:41:28;5.27;;;4.77;;
8260;SDS011;64115;50.170;8.242;2023-11-21T12:43:56;5.00;;;4.57;;
8260;SDS011;64115;50.170;8.242;2023-11-21T12:46:23;5.67;;;4.73;;
8260;SDS011;64115;50.170;8.242;2023-11-21T12:48:55;5.07;;;4.50;;
8260;SDS011;64115;50.170;8.242;2023-11-21T12:51:23;6.63;;;5.07;;
8260;SDS011;64115;50.170;8.242;2023-11-21T12:53:50;5.47;;;5.00;;
8260;SDS011;64115;50.170;8.242;2023-11-21T12:56:17;6.50;;;5.00;;
8260;SDS011;64115;50.170;8.242;2023-11-21T12:58:48;8.00;;;5.43;;
8260;SDS011;64115;50.170;8.242;2023-11-21T13:01:15;8.90;;;6.00;;
8260;SDS011;64115;50.170;8.242;2023-11-21T13:03:45;8.97;;;6.17;;
8260;SDS011;64115;50.170;8.242;2023-11-21T13:06:17;8.77;;;6.17;;
8260;SDS011;64115;50.170;8.242;2023-11-21T13:08:45;7.93;;;6.77;;
8260;SDS011;64115;50.170;8.242;2023-11-21T13:11:11;10.17;;;6.40;;
8260;SDS011;64115;50.170;8.242;2023-11-21T13:13:40;10.30;;;6.73;;
8260;SDS011;64115;50.170;8.242;2023-11-21T13:16:08;9.43;;;6.80;;
8260;SDS011;64115;50.170;8.242;2023-11-21T13:18:36;12.07;;;7.37;;
8260;SDS011;64115;50.170;8.242;2023-11-21T13:21:05;9.30;;;7.33;;
8260;SDS011;64115;50.170;8.242;2023-11-21T13:23:39;10.13;;;6.17;;
8260;SDS011;64115;50.170;8.242;2023-11-21T13:26:07;8.37;;;6.27;;
8260;SDS011;64115;50.170;8.242;2023-11-21T13:28:35;8.93;;;7.30;;
8260;SDS011;64115;50.170;8.242;2023-11-21T13:31:02;13.40;;;7.00;;
8260;SDS011;64115;50.170;8.242;2023-11-21T13:33:45;8.17;;;6.97;;
8260;SDS011;64115;50.170;8.242;2023-11-21T13:36:16;8.77;;;6.37;;
8260;SDS011;64115;50.170;8.242;2023-11-21T13:38:48;11.27;;;7.00;;
8260;SDS011;64115;50.170;8.242;2023-11-21T13:41:17;10.67;;;6.50;;
8260;SDS011;64115;50.170;8.242;2023-11-21T13:43:44;6.97;;;6.13;;
8260;SDS011;64115;50.170;8.242;2023-11-21T13:46:17;6.73;;;6.00;;
8260;SDS011;64115;50.170;8.242;2023-11-21T13:48:47;8.43;;;6.03;;
8260;SDS011;64115;50.170;8.242;2023-11-21T13:51:16;7.10;;;5.97;;
8260;SDS011;64115;50.170;8.242;2023-11-21T13:53:43;7.60;;;5.40;;
8260;SDS011;64115;50.170;8.242;2023-11-21T13:56:14;10.43;;;6.40;;
8260;SDS011;64115;50.170;8.242;2023-11-21T13:58:44;6.77;;;6.07;;
8260;SDS011;64115;50.170;8.242;2023-11-21T14:01:16;9.53;;;5.93;;
8260;SDS011;64115;50.170;8.242;2023-11-21T14:04:06;9.10;;;5.80;;
8260;SDS011;64115;50.170;8.242;2023-11-21T14:06:45;6.30;;;5.70;;
8260;SDS011;64115;50.170;8.242;2023-11-21T14:09:14;9.93;;;6.00;;
8260;SDS011;64115;50.170;8.242;2023-11-21T14:11:49;7.70;;;5.93;;
8260;SDS011;64115;50.170;8.242;2023-11-21T14:14:18;8.83;;;5.63;;
8260;SDS011;64115;50.170;8.242;2023-11-21T14:16:45;6.43;;;5.77;;
8260;SDS011;64115;50.170;8.242;2023-11-21T14:19:12;7.87;;;5.60;;
8260;SDS011;64115;50.170;8.242;2023-11-21T14:21:41;7.63;;;5.57;;
8260;SDS011;64115;50.170;8.242;2023-11-21T14:24:09;8.33;;;6.60;;
8260;SDS011;64115;50.170;8.242;2023-11-21T14:26:38;11.43;;;6.13;;
8260;SDS011;64115;50.170;8.242;2023-11-21T14:29:07;9.27;;;6.33;;
8260;SDS011;64115;50.170;8.242;2023-11-21T14:31:36;8.43;;;5.40;;
8260;SDS011;64115;50.170;8.242;2023-11-21T14:34:03;9.57;;;5.90;;
8260;SDS011;64115;50.170;8.242;2023-11-21T14:36:31;6.57;;;5.53;;
8260;SDS011;64115;50.170;8.242;2023-11-21T14:38:58;6.87;;;5.90;;
8260;SDS011;64115;50.170;8.242;2023-11-21T14:41:25;9.20;;;6.00;;
8260;SDS011;64115;50.170;8.242;2023-11-21T14:43:53;7.73;;;5.93;;
8260;SDS011;64115;50.170;8.242;2023-11-21T14:46:21;8.47;;;5.73;;
8260;SDS011;64115;50.170;8.242;2023-11-21T14:48:48;10.47;;;6.47;;
8260;SDS011;64115;50.170;8.242;2023-11-21T14:51:23;8.47;;;6.20;;
8260;SDS011;64115;50.170;8.242;2023-11-21T14:53:56;11.07;;;6.50;;
8260;SDS011;64115;50.170;8.242;2023-11-21T14:56:25;8.40;;;6.90;;
8260;SDS011;64115;50.170;8.242;2023-11-21T14:58:55;10.00;;;7.13;;
8260;SDS011;64115;50.170;8.242;2023-11-21T15:01:24;10.33;;;6.53;;